sensor_id;sensor_type;location;lat;lon;timestamp;pressure;altitude;pressure_sealevel;temperature;humidity
34241;BME280;20503;50.200;19.508;2022-08-19T00:04:37;101244.35;;;24.42;62.20
34241;BME280;20503;50.200;19.508;2022-08-19T00:09:48;101229.23;;;24.43;62.11
34241;BME280;20503;50.200;19.508;2022-08-19T00:14:59;101230.36;;;24.42;62.29
34241;BME280;20503;50.200;19.508;2022-08-19T00:20:13;101234.29;;;24.41;62.19
34241;BME280;20503;50.200;19.508;2022-08-19T00:25:20;101230.36;;;24.37;62.26
34241;BME280;20503;50.200;19.508;2022-08-19T00:30:31;101229.27;;;24.33;62.55
34241;BME280;20503;50.200;19.508;2022-08-19T00:35:42;101231.52;;;24.31;62.45
34241;BME280;20503;50.200;19.508;2022-08-19T00:40:52;101231.27;;;24.27;62.35
34241;BME280;20503;50.200;19.508;2022-08-19T00:46:03;101238.84;;;24.27;62.33
34241;BME280;20503;50.200;19.508;2022-08-19T00:51:14;101235.49;;;24.25;62.33
34241;BME280;20503;50.200;19.508;2022-08-19T00:56:25;101220.36;;;24.26;62.41
34241;BME280;20503;50.200;19.508;2022-08-19T01:01:37;101223.16;;;24.26;62.21
34241;BME280;20503;50.200;19.508;2022-08-19T01:06:46;101222.30;;;24.25;62.12
34241;BME280;20503;50.200;19.508;2022-08-19T01:11:57;101207.49;;;24.25;62.07
34241;BME280;20503;50.200;19.508;2022-08-19T01:17:10;101203.02;;;24.24;61.98
34241;BME280;20503;50.200;19.508;2022-08-19T01:27:40;101177.33;;;24.12;61.94
34241;BME280;20503;50.200;19.508;2022-08-19T01:32:41;101182.30;;;24.20;61.60
34241;BME280;20503;50.200;19.508;2022-08-19T01:37:54;101201.05;;;24.24;61.62
34241;BME280;20503;50.200;19.508;2022-08-19T01:43:02;101199.91;;;24.25;61.49
34241;BME280;20503;50.200;19.508;2022-08-19T01:48:13;101204.94;;;24.28;61.34
34241;BME280;20503;50.200;19.508;2022-08-19T01:53:22;101203.53;;;24.31;61.16
34241;BME280;20503;50.200;19.508;2022-08-19T01:58:45;101202.40;;;24.32;61.01
34241;BME280;20503;50.200;19.508;2022-08-19T02:03:49;101182.77;;;24.37;60.72
34241;BME280;20503;50.200;19.508;2022-08-19T02:08:55;101185.25;;;24.43;60.44
34241;BME280;20503;50.200;19.508;2022-08-19T02:14:07;101177.66;;;24.49;60.11
34241;BME280;20503;50.200;19.508;2022-08-19T02:19:16;101175.42;;;24.56;59.75
34241;BME280;20503;50.200;19.508;2022-08-19T02:24:27;101181.80;;;24.61;59.40
34241;BME280;20503;50.200;19.508;2022-08-19T02:29:38;101180.34;;;24.69;59.12
34241;BME280;20503;50.200;19.508;2022-08-19T02:34:48;101172.75;;;24.74;58.77
34241;BME280;20503;50.200;19.508;2022-08-19T02:39:59;101174.95;;;24.77;58.60
34241;BME280;20503;50.200;19.508;2022-08-19T02:45:10;101178.61;;;24.78;58.46
34241;BME280;20503;50.200;19.508;2022-08-19T02:50:20;101189.51;;;24.79;58.22
34241;BME280;20503;50.200;19.508;2022-08-19T02:55:31;101188.69;;;24.79;58.11
34241;BME280;20503;50.200;19.508;2022-08-19T03:00:48;101184.75;;;24.80;57.92
34241;BME280;20503;50.200;19.508;2022-08-19T03:11:05;101182.49;;;24.82;57.65
34241;BME280;20503;50.200;19.508;2022-08-19T03:16:15;101184.14;;;24.88;57.42
34241;BME280;20503;50.200;19.508;2022-08-19T03:21:31;101183.02;;;24.89;57.31
34241;BME280;20503;50.200;19.508;2022-08-19T03:26:40;101191.10;;;24.90;57.19
34241;BME280;20503;50.200;19.508;2022-08-19T03:31:46;101191.96;;;24.91;57.12
34241;BME280;20503;50.200;19.508;2022-08-19T03:37:03;101197.02;;;24.89;57.04
34241;BME280;20503;50.200;19.508;2022-08-19T03:42:08;101206.55;;;24.88;56.97
34241;BME280;20503;50.200;19.508;2022-08-19T03:47:18;101207.66;;;24.87;56.97
34241;BME280;20503;50.200;19.508;2022-08-19T03:52:29;101202.64;;;24.84;57.00
34241;BME280;20503;50.200;19.508;2022-08-19T03:57:40;101188.95;;;24.82;57.05
34241;BME280;20503;50.200;19.508;2022-08-19T04:02:51;101181.67;;;24.81;57.13
34241;BME280;20503;50.200;19.508;2022-08-19T04:08:02;101181.09;;;24.79;57.20
34241;BME280;20503;50.200;19.508;2022-08-19T04:13:13;101190.09;;;24.76;57.22
34241;BME280;20503;50.200;19.508;2022-08-19T04:18:23;101203.28;;;24.76;57.23
34241;BME280;20503;50.200;19.508;2022-08-19T04:23:34;101220.63;;;24.78;57.12
34241;BME280;20503;50.200;19.508;2022-08-19T04:28:45;101212.49;;;24.81;57.09
34241;BME280;20503;50.200;19.508;2022-08-19T04:33:57;101222.80;;;24.86;57.01
34241;BME280;20503;50.200;19.508;2022-08-19T04:39:09;101240.14;;;24.93;56.89
34241;BME280;20503;50.200;19.508;2022-08-19T04:44:17;101235.55;;;25.07;56.67
34241;BME280;20503;50.200;19.508;2022-08-19T04:49:27;101245.53;;;25.22;56.45
34241;BME280;20503;50.200;19.508;2022-08-19T04:54:38;101263.30;;;25.41;56.20
34241;BME280;20503;50.200;19.508;2022-08-19T04:59:49;101266.16;;;25.65;55.73
34241;BME280;20503;50.200;19.508;2022-08-19T05:05:00;101267.36;;;25.87;55.44
34241;BME280;20503;50.200;19.508;2022-08-19T05:10:10;101254.15;;;26.11;54.99
34241;BME280;20503;50.200;19.508;2022-08-19T05:15:21;101259.02;;;26.48;54.31
34241;BME280;20503;50.200;19.508;2022-08-19T05:20:31;101250.48;;;26.76;53.57
34241;BME280;20503;50.200;19.508;2022-08-19T05:25:45;101248.63;;;27.04;53.04
34241;BME280;20503;50.200;19.508;2022-08-19T05:30:53;101246.79;;;27.31;52.47
34241;BME280;20503;50.200;19.508;2022-08-19T05:36:04;101251.88;;;27.61;51.85
34241;BME280;20503;50.200;19.508;2022-08-19T05:41:14;101254.87;;;27.83;51.18
34241;BME280;20503;50.200;19.508;2022-08-19T05:46:25;101256.56;;;28.11;50.75
34241;BME280;20503;50.200;19.508;2022-08-19T05:51:36;101258.57;;;28.51;50.40
34241;BME280;20503;50.200;19.508;2022-08-19T05:56:46;101259.32;;;28.92;49.64
34241;BME280;20503;50.200;19.508;2022-08-19T06:02:20;101265.39;;;29.21;48.42
34241;BME280;20503;50.200;19.508;2022-08-19T06:07:31;101273.84;;;29.42;48.12
34241;BME280;20503;50.200;19.508;2022-08-19T06:12:42;101274.39;;;29.66;47.80
34241;BME280;20503;50.200;19.508;2022-08-19T06:17:53;101272.52;;;29.62;47.53
34241;BME280;20503;50.200;19.508;2022-08-19T06:23:03;101269.20;;;29.60;47.15
34241;BME280;20503;50.200;19.508;2022-08-19T06:28:14;101272.52;;;29.62;47.41
34241;BME280;20503;50.200;19.508;2022-08-19T06:33:25;101294.76;;;29.85;47.18
34241;BME280;20503;50.200;19.508;2022-08-19T06:38:35;101290.27;;;30.15;46.43
34241;BME280;20503;50.200;19.508;2022-08-19T06:43:46;101285.82;;;30.22;45.81
34241;BME280;20503;50.200;19.508;2022-08-19T06:48:57;101287.27;;;30.50;45.88
34241;BME280;20503;50.200;19.508;2022-08-19T06:54:08;101297.81;;;30.75;45.34
34241;BME280;20503;50.200;19.508;2022-08-19T06:59:20;101306.51;;;30.87;44.88
34241;BME280;20503;50.200;19.508;2022-08-19T07:04:31;101311.05;;;31.14;45.13
34241;BME280;20503;50.200;19.508;2022-08-19T07:09:42;101316.20;;;31.54;44.31
34241;BME280;20503;50.200;19.508;2022-08-19T07:14:50;101311.05;;;31.73;43.74
34241;BME280;20503;50.200;19.508;2022-08-19T07:20:02;101318.87;;;31.76;42.97
34241;BME280;20503;50.200;19.508;2022-08-19T07:25:12;101326.98;;;32.03;43.04
34241;BME280;20503;50.200;19.508;2022-08-19T07:30:23;101332.79;;;32.23;42.50
34241;BME280;20503;50.200;19.508;2022-08-19T07:35:33;101332.56;;;32.37;42.32
34241;BME280;20503;50.200;19.508;2022-08-19T07:40:47;101333.95;;;32.60;41.86
34241;BME280;20503;50.200;19.508;2022-08-19T07:45:55;101327.81;;;32.87;42.00
34241;BME280;20503;50.200;19.508;2022-08-19T07:51:07;101340.50;;;33.10;41.72
34241;BME280;20503;50.200;19.508;2022-08-19T07:56:18;101353.46;;;32.99;41.11
34241;BME280;20503;50.200;19.508;2022-08-19T08:01:27;101352.43;;;33.03;40.80
34241;BME280;20503;50.200;19.508;2022-08-19T08:06:38;101366.97;;;33.31;40.61
34241;BME280;20503;50.200;19.508;2022-08-19T08:11:55;101362.88;;;33.40;39.85
34241;BME280;20503;50.200;19.508;2022-08-19T08:16:59;101362.40;;;33.38;39.87
34241;BME280;20503;50.200;19.508;2022-08-19T08:22:11;101378.11;;;33.36;39.56
34241;BME280;20503;50.200;19.508;2022-08-19T08:27:25;101366.46;;;33.49;39.65
34241;BME280;20503;50.200;19.508;2022-08-19T08:32:31;101369.59;;;33.76;39.04
34241;BME280;20503;50.200;19.508;2022-08-19T08:37:43;101368.17;;;34.03;38.86
34241;BME280;20503;50.200;19.508;2022-08-19T08:48:17;101363.41;;;34.27;37.37
34241;BME280;20503;50.200;19.508;2022-08-19T08:53:18;101363.66;;;34.34;36.68
34241;BME280;20503;50.200;19.508;2022-08-19T08:58:36;101352.84;;;34.28;35.77
34241;BME280;20503;50.200;19.508;2022-08-19T09:03:43;101341.48;;;34.40;35.97
34241;BME280;20503;50.200;19.508;2022-08-19T09:09:04;101362.59;;;34.51;35.43
34241;BME280;20503;50.200;19.508;2022-08-19T09:19:15;101338.21;;;34.74;35.07
34241;BME280;20503;50.200;19.508;2022-08-19T09:24:18;101336.64;;;35.00;34.87
34241;BME280;20503;50.200;19.508;2022-08-19T09:29:29;101327.13;;;35.20;34.95
34241;BME280;20503;50.200;19.508;2022-08-19T09:34:39;101333.54;;;35.29;35.31
34241;BME280;20503;50.200;19.508;2022-08-19T09:39:51;101333.63;;;35.33;35.28
34241;BME280;20503;50.200;19.508;2022-08-19T09:45:02;101321.61;;;35.39;34.09
34241;BME280;20503;50.200;19.508;2022-08-19T09:50:13;101319.96;;;35.38;32.65
34241;BME280;20503;50.200;19.508;2022-08-19T09:55:23;101325.13;;;35.60;33.14
34241;BME280;20503;50.200;19.508;2022-08-19T10:00:33;101319.05;;;35.89;33.06
34241;BME280;20503;50.200;19.508;2022-08-19T10:05:44;101315.41;;;36.04;32.31
34241;BME280;20503;50.200;19.508;2022-08-19T10:10:55;101320.82;;;36.36;32.28
34241;BME280;20503;50.200;19.508;2022-08-19T10:16:08;101331.68;;;36.31;31.79
34241;BME280;20503;50.200;19.508;2022-08-19T10:26:36;101326.77;;;36.16;32.54
34241;BME280;20503;50.200;19.508;2022-08-19T10:31:38;101306.61;;;36.40;31.91
34241;BME280;20503;50.200;19.508;2022-08-19T10:36:48;101312.98;;;36.64;31.85
34241;BME280;20503;50.200;19.508;2022-08-19T10:41:59;101312.34;;;36.71;31.33
34241;BME280;20503;50.200;19.508;2022-08-19T10:47:10;101308.86;;;36.62;30.84
34241;BME280;20503;50.200;19.508;2022-08-19T10:52:20;101316.75;;;36.84;30.52
34241;BME280;20503;50.200;19.508;2022-08-19T10:57:33;101310.67;;;37.20;30.88
34241;BME280;20503;50.200;19.508;2022-08-19T11:02:41;101312.34;;;37.40;30.31
34241;BME280;20503;50.200;19.508;2022-08-19T11:07:52;101299.91;;;37.48;29.55
34241;BME280;20503;50.200;19.508;2022-08-19T11:13:03;101286.34;;;37.26;28.82
34241;BME280;20503;50.200;19.508;2022-08-19T11:18:13;101286.25;;;37.22;29.24
34241;BME280;20503;50.200;19.508;2022-08-19T11:23:24;101291.13;;;37.22;29.78
34241;BME280;20503;50.200;19.508;2022-08-19T11:28:36;101278.74;;;37.33;30.32
34241;BME280;20503;50.200;19.508;2022-08-19T11:33:46;101275.52;;;37.54;29.95
34241;BME280;20503;50.200;19.508;2022-08-19T11:38:56;101262.57;;;37.60;29.96
34241;BME280;20503;50.200;19.508;2022-08-19T11:44:07;101267.99;;;37.65;29.98
34241;BME280;20503;50.200;19.508;2022-08-19T11:49:19;101258.20;;;37.66;30.31
34241;BME280;20503;50.200;19.508;2022-08-19T11:54:28;101263.91;;;37.66;29.08
34241;BME280;20503;50.200;19.508;2022-08-19T11:59:39;101261.34;;;37.79;28.42
34241;BME280;20503;50.200;19.508;2022-08-19T12:04:50;101271.13;;;37.78;28.61
34241;BME280;20503;50.200;19.508;2022-08-19T12:10:00;101266.27;;;38.01;28.47
34241;BME280;20503;50.200;19.508;2022-08-19T12:15:12;101271.23;;;38.27;28.79
34241;BME280;20503;50.200;19.508;2022-08-19T12:20:23;101269.93;;;38.69;29.03
34241;BME280;20503;50.200;19.508;2022-08-19T12:25:33;101270.98;;;39.10;28.86
34241;BME280;20503;50.200;19.508;2022-08-19T12:30:43;101268.09;;;39.06;28.38
34241;BME280;20503;50.200;19.508;2022-08-19T12:35:55;101266.81;;;39.30;28.80
34241;BME280;20503;50.200;19.508;2022-08-19T12:41:06;101264.59;;;39.82;27.93
34241;BME280;20503;50.200;19.508;2022-08-19T12:46:17;101249.63;;;40.02;27.67
34241;BME280;20503;50.200;19.508;2022-08-19T12:51:26;101247.98;;;40.01;26.96
34241;BME280;20503;50.200;19.508;2022-08-19T12:56:37;101248.63;;;39.85;27.04
34241;BME280;20503;50.200;19.508;2022-08-19T13:01:48;101243.04;;;39.98;27.08
34241;BME280;20503;50.200;19.508;2022-08-19T13:06:58;101229.41;;;40.32;26.85
34241;BME280;20503;50.200;19.508;2022-08-19T13:12:09;101215.72;;;40.62;26.49
34241;BME280;20503;50.200;19.508;2022-08-19T13:17:20;101219.40;;;40.59;26.07
34241;BME280;20503;50.200;19.508;2022-08-19T13:22:30;101217.04;;;40.75;25.65
34241;BME280;20503;50.200;19.508;2022-08-19T13:27:41;101219.64;;;40.43;25.50
34241;BME280;20503;50.200;19.508;2022-08-19T13:32:52;101222.75;;;39.81;25.86
34241;BME280;20503;50.200;19.508;2022-08-19T13:38:05;101220.58;;;39.68;26.35
34241;BME280;20503;50.200;19.508;2022-08-19T13:43:14;101212.49;;;39.80;26.77
34241;BME280;20503;50.200;19.508;2022-08-19T13:48:25;101217.54;;;40.33;27.16
34241;BME280;20503;50.200;19.508;2022-08-19T13:53:35;101212.78;;;40.51;26.94
34241;BME280;20503;50.200;19.508;2022-08-19T13:58:45;101220.49;;;40.44;26.92
34241;BME280;20503;50.200;19.508;2022-08-19T14:03:56;101218.38;;;40.37;26.49
34241;BME280;20503;50.200;19.508;2022-08-19T14:09:07;101216.16;;;40.17;27.06
34241;BME280;20503;50.200;19.508;2022-08-19T14:14:17;101204.05;;;40.41;27.32
34241;BME280;20503;50.200;19.508;2022-08-19T14:19:28;101208.55;;;39.95;27.10
34241;BME280;20503;50.200;19.508;2022-08-19T14:24:39;101194.34;;;39.69;27.52
34241;BME280;20503;50.200;19.508;2022-08-19T14:29:50;101198.13;;;39.44;27.72
34241;BME280;20503;50.200;19.508;2022-08-19T14:35:01;101201.41;;;39.42;27.75
34241;BME280;20503;50.200;19.508;2022-08-19T14:40:13;101204.46;;;39.23;27.66
34241;BME280;20503;50.200;19.508;2022-08-19T14:45:22;101212.64;;;38.95;27.56
34241;BME280;20503;50.200;19.508;2022-08-19T14:50:33;101203.29;;;38.72;27.80
34241;BME280;20503;50.200;19.508;2022-08-19T14:55:44;101193.70;;;38.61;27.94
34241;BME280;20503;50.200;19.508;2022-08-19T15:00:53;101189.03;;;38.50;28.23
34241;BME280;20503;50.200;19.508;2022-08-19T15:06:05;101184.80;;;38.40;28.28
34241;BME280;20503;50.200;19.508;2022-08-19T15:11:18;101168.86;;;38.43;28.27
34241;BME280;20503;50.200;19.508;2022-08-19T15:16:26;101147.88;;;38.35;28.50
34241;BME280;20503;50.200;19.508;2022-08-19T15:21:36;101148.41;;;38.18;28.40
34241;BME280;20503;50.200;19.508;2022-08-19T15:26:47;101158.81;;;38.04;28.64
34241;BME280;20503;50.200;19.508;2022-08-19T15:31:58;101171.80;;;37.98;29.10
34241;BME280;20503;50.200;19.508;2022-08-19T15:37:08;101159.63;;;37.82;29.24
34241;BME280;20503;50.200;19.508;2022-08-19T15:42:19;101154.09;;;37.48;29.53
34241;BME280;20503;50.200;19.508;2022-08-19T15:47:30;101157.08;;;37.36;30.06
34241;BME280;20503;50.200;19.508;2022-08-19T15:52:55;101141.77;;;37.06;30.41
34241;BME280;20503;50.200;19.508;2022-08-19T15:57:53;101133.02;;;36.45;30.76
34241;BME280;20503;50.200;19.508;2022-08-19T16:03:14;101123.20;;;35.77;31.62
34241;BME280;20503;50.200;19.508;2022-08-19T16:08:25;101137.23;;;35.12;32.38
34241;BME280;20503;50.200;19.508;2022-08-19T16:13:26;101152.35;;;34.61;33.15
34241;BME280;20503;50.200;19.508;2022-08-19T16:18:34;101174.44;;;34.16;33.80
34241;BME280;20503;50.200;19.508;2022-08-19T16:23:45;101179.39;;;33.83;34.48
34241;BME280;20503;50.200;19.508;2022-08-19T16:29:00;101187.93;;;33.51;35.13
34241;BME280;20503;50.200;19.508;2022-08-19T16:34:06;101184.80;;;33.20;35.80
34241;BME280;20503;50.200;19.508;2022-08-19T16:39:17;101182.13;;;32.95;36.32
34241;BME280;20503;50.200;19.508;2022-08-19T16:44:28;101204.73;;;32.71;36.99
34241;BME280;20503;50.200;19.508;2022-08-19T16:49:38;101197.70;;;32.48;37.54
34241;BME280;20503;50.200;19.508;2022-08-19T16:54:49;101192.68;;;32.24;38.37
34241;BME280;20503;50.200;19.508;2022-08-19T17:00:00;101173.43;;;32.01;39.02
34241;BME280;20503;50.200;19.508;2022-08-19T17:05:10;101166.03;;;31.79;39.75
34241;BME280;20503;50.200;19.508;2022-08-19T17:10:21;101149.76;;;31.59;40.48
34241;BME280;20503;50.200;19.508;2022-08-19T17:15:32;101150.63;;;31.43;41.32
34241;BME280;20503;50.200;19.508;2022-08-19T17:20:43;101157.88;;;31.24;41.65
34241;BME280;20503;50.200;19.508;2022-08-19T17:25:53;101155.85;;;31.07;42.52
34241;BME280;20503;50.200;19.508;2022-08-19T17:31:04;101170.88;;;30.91;42.96
34241;BME280;20503;50.200;19.508;2022-08-19T17:36:19;101192.84;;;30.77;43.37
34241;BME280;20503;50.200;19.508;2022-08-19T17:41:26;101200.65;;;30.63;43.81
34241;BME280;20503;50.200;19.508;2022-08-19T17:46:36;101208.24;;;30.54;44.06
34241;BME280;20503;50.200;19.508;2022-08-19T17:51:47;101203.23;;;30.42;44.39
34241;BME280;20503;50.200;19.508;2022-08-19T17:56:57;101225.02;;;30.33;44.68
34241;BME280;20503;50.200;19.508;2022-08-19T18:02:09;101238.28;;;30.24;45.11
34241;BME280;20503;50.200;19.508;2022-08-19T18:07:19;101234.92;;;30.14;45.59
34241;BME280;20503;50.200;19.508;2022-08-19T18:12:30;101225.26;;;30.06;45.90
34241;BME280;20503;50.200;19.508;2022-08-19T18:17:40;101238.15;;;29.99;46.31
34241;BME280;20503;50.200;19.508;2022-08-19T18:22:51;101273.99;;;29.90;47.33
34241;BME280;20503;50.200;19.508;2022-08-19T18:28:02;101326.68;;;29.64;48.59
34241;BME280;20503;50.200;19.508;2022-08-19T18:33:13;101390.14;;;29.31;51.14
34241;BME280;20503;50.200;19.508;2022-08-19T18:38:23;101450.13;;;28.24;56.31
34241;BME280;20503;50.200;19.508;2022-08-19T18:43:37;101444.66;;;26.80;60.78
34241;BME280;20503;50.200;19.508;2022-08-19T18:48:50;101461.77;;;25.98;64.70
34241;BME280;20503;50.200;19.508;2022-08-19T18:54:03;101482.60;;;25.43;66.69
34241;BME280;20503;50.200;19.508;2022-08-19T18:59:06;101496.19;;;25.11;68.28
34241;BME280;20503;50.200;19.508;2022-08-19T19:04:20;101498.04;;;24.43;75.22
34241;BME280;20503;50.200;19.508;2022-08-19T19:09:28;101477.12;;;23.09;79.67
34241;BME280;20503;50.200;19.508;2022-08-19T19:14:40;101473.32;;;22.79;83.15
34241;BME280;20503;50.200;19.508;2022-08-19T19:19:49;101467.50;;;22.85;84.57
34241;BME280;20503;50.200;19.508;2022-08-19T19:25:00;101470.02;;;22.82;87.50
34241;BME280;20503;50.200;19.508;2022-08-19T19:30:11;101462.15;;;22.79;87.44
34241;BME280;20503;50.200;19.508;2022-08-19T19:35:21;101453.82;;;22.84;88.22
34241;BME280;20503;50.200;19.508;2022-08-19T19:40:32;101456.63;;;22.89;88.86
34241;BME280;20503;50.200;19.508;2022-08-19T19:45:44;101453.58;;;22.90;89.47
34241;BME280;20503;50.200;19.508;2022-08-19T19:50:54;101437.91;;;22.89;89.90
34241;BME280;20503;50.200;19.508;2022-08-19T19:56:05;101433.16;;;22.90;90.32
34241;BME280;20503;50.200;19.508;2022-08-19T20:01:16;101430.67;;;22.93;90.77
34241;BME280;20503;50.200;19.508;2022-08-19T20:06:27;101434.28;;;22.94;91.04
34241;BME280;20503;50.200;19.508;2022-08-19T20:11:43;101429.26;;;22.96;91.38
34241;BME280;20503;50.200;19.508;2022-08-19T20:16:48;101436.52;;;22.97;91.78
34241;BME280;20503;50.200;19.508;2022-08-19T20:21:59;101455.77;;;22.88;91.70
34241;BME280;20503;50.200;19.508;2022-08-19T20:27:09;101455.70;;;22.73;91.42
34241;BME280;20503;50.200;19.508;2022-08-19T20:32:19;101447.30;;;22.68;92.26
34241;BME280;20503;50.200;19.508;2022-08-19T20:37:30;101434.47;;;22.72;92.61
34241;BME280;20503;50.200;19.508;2022-08-19T20:42:42;101436.45;;;22.77;93.04
34241;BME280;20503;50.200;19.508;2022-08-19T20:47:51;101432.84;;;22.81;93.34
34241;BME280;20503;50.200;19.508;2022-08-19T20:53:13;101437.07;;;22.84;93.47
34241;BME280;20503;50.200;19.508;2022-08-19T20:58:16;101416.66;;;22.83;93.82
34241;BME280;20503;50.200;19.508;2022-08-19T21:03:26;101413.87;;;22.88;93.94
34241;BME280;20503;50.200;19.508;2022-08-19T21:08:35;101404.93;;;22.86;93.94
34241;BME280;20503;50.200;19.508;2022-08-19T21:13:45;101397.11;;;22.83;93.97
34241;BME280;20503;50.200;19.508;2022-08-19T21:18:56;101416.95;;;22.82;94.14
34241;BME280;20503;50.200;19.508;2022-08-19T21:24:07;101415.22;;;22.71;93.49
34241;BME280;20503;50.200;19.508;2022-08-19T21:29:17;101415.46;;;22.64;93.62
34241;BME280;20503;50.200;19.508;2022-08-19T21:34:29;101433.31;;;22.58;93.98
34241;BME280;20503;50.200;19.508;2022-08-19T21:39:39;101447.53;;;22.20;92.62
34241;BME280;20503;50.200;19.508;2022-08-19T21:44:50;101448.62;;;22.14;94.47
34241;BME280;20503;50.200;19.508;2022-08-19T21:50:00;101444.49;;;22.22;95.60
34241;BME280;20503;50.200;19.508;2022-08-19T21:55:14;101453.20;;;22.30;96.01
34241;BME280;20503;50.200;19.508;2022-08-19T22:00:23;101440.13;;;22.36;96.15
34241;BME280;20503;50.200;19.508;2022-08-19T22:05:33;101474.95;;;22.28;93.96
34241;BME280;20503;50.200;19.508;2022-08-19T22:10:43;101471.50;;;22.16;95.36
34241;BME280;20503;50.200;19.508;2022-08-19T22:15:54;101459.23;;;22.17;95.96
34241;BME280;20503;50.200;19.508;2022-08-19T22:21:05;101466.43;;;22.08;96.20
34241;BME280;20503;50.200;19.508;2022-08-19T22:26:16;101449.45;;;22.15;96.95
34241;BME280;20503;50.200;19.508;2022-08-19T22:31:26;101448.70;;;22.24;97.50
34241;BME280;20503;50.200;19.508;2022-08-19T22:36:37;101437.28;;;22.31;97.81
34241;BME280;20503;50.200;19.508;2022-08-19T22:41:47;101437.88;;;22.33;97.77
34241;BME280;20503;50.200;19.508;2022-08-19T22:46:58;101434.25;;;22.37;97.73
34241;BME280;20503;50.200;19.508;2022-08-19T22:52:10;101419.79;;;22.40;97.82
34241;BME280;20503;50.200;19.508;2022-08-19T22:57:20;101420.41;;;22.47;97.96
34241;BME280;20503;50.200;19.508;2022-08-19T23:02:34;101425.43;;;22.50;97.93
34241;BME280;20503;50.200;19.508;2022-08-19T23:07:41;101437.15;;;22.47;97.50
34241;BME280;20503;50.200;19.508;2022-08-19T23:12:52;101418.73;;;22.46;97.78
34241;BME280;20503;50.200;19.508;2022-08-19T23:18:03;101387.48;;;22.49;97.89
34241;BME280;20503;50.200;19.508;2022-08-19T23:23:15;101411.77;;;22.49;95.24
34241;BME280;20503;50.200;19.508;2022-08-19T23:28:24;101437.59;;;22.34;96.88
34241;BME280;20503;50.200;19.508;2022-08-19T23:33:40;101433.44;;;22.37;97.66
34241;BME280;20503;50.200;19.508;2022-08-19T23:38:47;101442.52;;;22.22;96.91
34241;BME280;20503;50.200;19.508;2022-08-19T23:43:56;101444.74;;;22.20;95.74
34241;BME280;20503;50.200;19.508;2022-08-19T23:49:07;101429.12;;;22.19;97.83
34241;BME280;20503;50.200;19.508;2022-08-19T23:54:18;101418.53;;;22.21;98.09
34241;BME280;20503;50.200;19.508;2022-08-19T23:59:28;101428.05;;;22.25;98.56
